sensor_id;sensor_type;location;lat;lon;timestamp;temperature;humidity
36416;DHT22;22447;44.530;18.620;2023-08-08T00:01:25;15.00;99.90
36416;DHT22;22447;44.530;18.620;2023-08-08T00:03:51;15.00;99.90
36416;DHT22;22447;44.530;18.620;2023-08-08T00:06:17;14.90;99.90
36416;DHT22;22447;44.530;18.620;2023-08-08T00:08:43;14.90;99.90
36416;DHT22;22447;44.530;18.620;2023-08-08T00:11:08;14.90;99.90
36416;DHT22;22447;44.530;18.620;2023-08-08T00:13:34;14.90;99.90
36416;DHT22;22447;44.530;18.620;2023-08-08T00:16:00;14.90;99.90
36416;DHT22;22447;44.530;18.620;2023-08-08T00:18:26;14.90;99.90
36416;DHT22;22447;44.530;18.620;2023-08-08T00:20:52;14.90;99.90
36416;DHT22;22447;44.530;18.620;2023-08-08T00:23:18;14.90;99.90
36416;DHT22;22447;44.530;18.620;2023-08-08T00:25:44;14.90;99.90
36416;DHT22;22447;44.530;18.620;2023-08-08T00:28:15;14.90;99.90
36416;DHT22;22447;44.530;18.620;2023-08-08T00:30:42;14.80;99.90
36416;DHT22;22447;44.530;18.620;2023-08-08T00:33:08;14.80;99.90
36416;DHT22;22447;44.530;18.620;2023-08-08T00:35:34;14.80;99.90
36416;DHT22;22447;44.530;18.620;2023-08-08T00:38:00;14.90;99.90
36416;DHT22;22447;44.530;18.620;2023-08-08T00:40:26;14.90;99.90
36416;DHT22;22447;44.530;18.620;2023-08-08T00:42:52;14.90;99.90
36416;DHT22;22447;44.530;18.620;2023-08-08T00:45:18;14.80;99.90
36416;DHT22;22447;44.530;18.620;2023-08-08T00:47:44;14.80;99.90
36416;DHT22;22447;44.530;18.620;2023-08-08T00:50:11;14.80;99.90
36416;DHT22;22447;44.530;18.620;2023-08-08T00:52:38;14.80;99.90
36416;DHT22;22447;44.530;18.620;2023-08-08T00:55:05;14.80;99.90
36416;DHT22;22447;44.530;18.620;2023-08-08T00:57:31;14.90;99.90
36416;DHT22;22447;44.530;18.620;2023-08-08T00:59:57;14.90;99.90
36416;DHT22;22447;44.530;18.620;2023-08-08T01:02:23;14.90;99.90
36416;DHT22;22447;44.530;18.620;2023-08-08T01:04:49;14.90;99.90
36416;DHT22;22447;44.530;18.620;2023-08-08T01:09:58;14.80;99.90
36416;DHT22;22447;44.530;18.620;2023-08-08T01:12:31;14.90;99.90
36416;DHT22;22447;44.530;18.620;2023-08-08T01:14:57;14.90;99.90
36416;DHT22;22447;44.530;18.620;2023-08-08T01:17:25;14.80;99.90
36416;DHT22;22447;44.530;18.620;2023-08-08T01:19:52;14.80;99.90
36416;DHT22;22447;44.530;18.620;2023-08-08T01:22:37;14.70;99.90
36416;DHT22;22447;44.530;18.620;2023-08-08T01:25:04;14.60;99.90
36416;DHT22;22447;44.530;18.620;2023-08-08T01:27:30;14.60;99.90
36416;DHT22;22447;44.530;18.620;2023-08-08T01:29:56;14.70;99.90
36416;DHT22;22447;44.530;18.620;2023-08-08T01:32:22;14.70;99.90
36416;DHT22;22447;44.530;18.620;2023-08-08T01:34:48;14.60;99.90
36416;DHT22;22447;44.530;18.620;2023-08-08T01:37:20;14.70;99.90
36416;DHT22;22447;44.530;18.620;2023-08-08T01:39:49;14.60;99.90
36416;DHT22;22447;44.530;18.620;2023-08-08T01:42:18;14.50;99.90
36416;DHT22;22447;44.530;18.620;2023-08-08T01:44:47;14.50;99.90
36416;DHT22;22447;44.530;18.620;2023-08-08T01:47:14;14.40;99.90
36416;DHT22;22447;44.530;18.620;2023-08-08T01:49:40;14.40;99.90
36416;DHT22;22447;44.530;18.620;2023-08-08T01:52:06;14.40;99.90
36416;DHT22;22447;44.530;18.620;2023-08-08T01:54:32;14.40;99.90
36416;DHT22;22447;44.530;18.620;2023-08-08T01:56:58;14.30;99.90
36416;DHT22;22447;44.530;18.620;2023-08-08T01:59:24;14.30;99.90
36416;DHT22;22447;44.530;18.620;2023-08-08T02:01:50;14.20;99.90
36416;DHT22;22447;44.530;18.620;2023-08-08T02:04:16;14.10;99.90
36416;DHT22;22447;44.530;18.620;2023-08-08T02:06:41;14.10;99.90
36416;DHT22;22447;44.530;18.620;2023-08-08T02:09:07;14.10;99.90
36416;DHT22;22447;44.530;18.620;2023-08-08T02:11:34;14.10;99.90
36416;DHT22;22447;44.530;18.620;2023-08-08T02:14:00;14.10;99.90
36416;DHT22;22447;44.530;18.620;2023-08-08T02:16:26;14.00;99.90
36416;DHT22;22447;44.530;18.620;2023-08-08T02:18:53;13.90;99.90
36416;DHT22;22447;44.530;18.620;2023-08-08T02:21:18;13.90;99.90
36416;DHT22;22447;44.530;18.620;2023-08-08T02:23:44;13.90;99.90
36416;DHT22;22447;44.530;18.620;2023-08-08T02:26:10;13.80;99.90
36416;DHT22;22447;44.530;18.620;2023-08-08T02:28:36;13.80;99.90
36416;DHT22;22447;44.530;18.620;2023-08-08T02:31:03;13.90;99.90
36416;DHT22;22447;44.530;18.620;2023-08-08T02:33:29;13.90;99.90
36416;DHT22;22447;44.530;18.620;2023-08-08T02:35:54;13.80;99.90
36416;DHT22;22447;44.530;18.620;2023-08-08T02:38:20;13.70;99.90
36416;DHT22;22447;44.530;18.620;2023-08-08T02:40:46;13.70;99.90
36416;DHT22;22447;44.530;18.620;2023-08-08T02:43:12;13.60;99.90
36416;DHT22;22447;44.530;18.620;2023-08-08T02:45:38;13.60;99.90
36416;DHT22;22447;44.530;18.620;2023-08-08T02:48:05;13.50;99.90
36416;DHT22;22447;44.530;18.620;2023-08-08T02:50:31;13.50;99.90
36416;DHT22;22447;44.530;18.620;2023-08-08T02:52:57;13.50;99.90
36416;DHT22;22447;44.530;18.620;2023-08-08T02:55:27;13.40;99.90
36416;DHT22;22447;44.530;18.620;2023-08-08T02:57:53;13.40;99.90
36416;DHT22;22447;44.530;18.620;2023-08-08T03:00:19;13.30;99.90
36416;DHT22;22447;44.530;18.620;2023-08-08T03:02:49;13.30;99.90
36416;DHT22;22447;44.530;18.620;2023-08-08T03:05:16;13.40;99.90
36416;DHT22;22447;44.530;18.620;2023-08-08T03:07:42;13.40;99.90
36416;DHT22;22447;44.530;18.620;2023-08-08T03:10:09;13.30;99.90
36416;DHT22;22447;44.530;18.620;2023-08-08T03:12:36;13.20;99.90
36416;DHT22;22447;44.530;18.620;2023-08-08T03:15:05;13.20;99.90
36416;DHT22;22447;44.530;18.620;2023-08-08T03:17:32;13.30;99.90
36416;DHT22;22447;44.530;18.620;2023-08-08T03:19:59;13.30;99.90
36416;DHT22;22447;44.530;18.620;2023-08-08T03:22:26;13.40;99.90
36416;DHT22;22447;44.530;18.620;2023-08-08T03:24:52;13.40;99.90
36416;DHT22;22447;44.530;18.620;2023-08-08T03:27:17;13.50;99.90
36416;DHT22;22447;44.530;18.620;2023-08-08T03:29:47;13.50;99.90
36416;DHT22;22447;44.530;18.620;2023-08-08T03:32:16;13.40;99.90
36416;DHT22;22447;44.530;18.620;2023-08-08T03:34:42;13.30;99.90
36416;DHT22;22447;44.530;18.620;2023-08-08T03:37:07;13.30;99.90
36416;DHT22;22447;44.530;18.620;2023-08-08T03:39:35;13.40;99.90
36416;DHT22;22447;44.530;18.620;2023-08-08T03:42:01;13.50;99.90
36416;DHT22;22447;44.530;18.620;2023-08-08T03:44:27;13.60;99.90
36416;DHT22;22447;44.530;18.620;2023-08-08T03:46:53;13.60;99.90
36416;DHT22;22447;44.530;18.620;2023-08-08T03:49:19;13.60;99.90
36416;DHT22;22447;44.530;18.620;2023-08-08T03:51:45;13.60;99.90
36416;DHT22;22447;44.530;18.620;2023-08-08T03:54:10;13.70;99.90
36416;DHT22;22447;44.530;18.620;2023-08-08T03:56:36;13.60;99.90
36416;DHT22;22447;44.530;18.620;2023-08-08T03:59:02;13.60;99.90
36416;DHT22;22447;44.530;18.620;2023-08-08T04:01:28;13.60;99.90
36416;DHT22;22447;44.530;18.620;2023-08-08T04:03:55;13.60;99.90
36416;DHT22;22447;44.530;18.620;2023-08-08T04:06:21;13.50;99.90
36416;DHT22;22447;44.530;18.620;2023-08-08T04:08:47;13.40;99.90
36416;DHT22;22447;44.530;18.620;2023-08-08T04:11:13;13.50;99.90
36416;DHT22;22447;44.530;18.620;2023-08-08T04:13:39;13.50;99.90
36416;DHT22;22447;44.530;18.620;2023-08-08T04:16:05;13.60;99.90
36416;DHT22;22447;44.530;18.620;2023-08-08T04:18:31;13.60;99.90
36416;DHT22;22447;44.530;18.620;2023-08-08T04:20:57;13.70;99.90
36416;DHT22;22447;44.530;18.620;2023-08-08T04:23:23;13.70;99.90
36416;DHT22;22447;44.530;18.620;2023-08-08T04:25:54;13.70;99.90
36416;DHT22;22447;44.530;18.620;2023-08-08T04:28:20;13.70;99.90
36416;DHT22;22447;44.530;18.620;2023-08-08T04:30:46;13.60;99.90
36416;DHT22;22447;44.530;18.620;2023-08-08T04:33:12;13.60;99.90
36416;DHT22;22447;44.530;18.620;2023-08-08T04:35:38;13.60;99.90
36416;DHT22;22447;44.530;18.620;2023-08-08T04:38:04;13.70;99.90
36416;DHT22;22447;44.530;18.620;2023-08-08T04:45:22;14.10;99.90
36416;DHT22;22447;44.530;18.620;2023-08-08T04:47:48;14.10;99.90
36416;DHT22;22447;44.530;18.620;2023-08-08T04:50:14;14.10;99.90
36416;DHT22;22447;44.530;18.620;2023-08-08T04:52:40;14.20;99.90
36416;DHT22;22447;44.530;18.620;2023-08-08T04:55:07;14.30;99.90
36416;DHT22;22447;44.530;18.620;2023-08-08T04:57:33;14.40;99.90
36416;DHT22;22447;44.530;18.620;2023-08-08T04:59:59;14.40;99.90
36416;DHT22;22447;44.530;18.620;2023-08-08T05:02:30;14.40;99.90
36416;DHT22;22447;44.530;18.620;2023-08-08T05:04:56;14.60;99.90
36416;DHT22;22447;44.530;18.620;2023-08-08T05:07:22;14.70;99.90
36416;DHT22;22447;44.530;18.620;2023-08-08T05:09:48;14.70;99.90
36416;DHT22;22447;44.530;18.620;2023-08-08T05:12:14;14.70;99.90
36416;DHT22;22447;44.530;18.620;2023-08-08T05:14:39;14.70;99.90
36416;DHT22;22447;44.530;18.620;2023-08-08T05:17:05;14.80;99.90
36416;DHT22;22447;44.530;18.620;2023-08-08T05:19:31;14.90;99.90
36416;DHT22;22447;44.530;18.620;2023-08-08T05:21:57;14.80;99.90
36416;DHT22;22447;44.530;18.620;2023-08-08T05:24:23;14.90;99.90
36416;DHT22;22447;44.530;18.620;2023-08-08T05:31:42;15.20;99.90
36416;DHT22;22447;44.530;18.620;2023-08-08T05:34:08;15.20;99.90
36416;DHT22;22447;44.530;18.620;2023-08-08T05:36:34;15.30;99.90
36416;DHT22;22447;44.530;18.620;2023-08-08T05:39:00;15.40;99.90
36416;DHT22;22447;44.530;18.620;2023-08-08T05:44:13;15.50;99.90
36416;DHT22;22447;44.530;18.620;2023-08-08T05:46:39;15.70;99.90
36416;DHT22;22447;44.530;18.620;2023-08-08T05:49:05;15.70;99.90
36416;DHT22;22447;44.530;18.620;2023-08-08T05:51:32;15.50;99.90
36416;DHT22;22447;44.530;18.620;2023-08-08T05:53:58;15.50;99.90
36416;DHT22;22447;44.530;18.620;2023-08-08T05:56:24;15.60;99.90
36416;DHT22;22447;44.530;18.620;2023-08-08T05:58:50;15.60;99.90
36416;DHT22;22447;44.530;18.620;2023-08-08T06:01:16;15.60;99.90
36416;DHT22;22447;44.530;18.620;2023-08-08T06:03:42;15.50;99.90
36416;DHT22;22447;44.530;18.620;2023-08-08T06:06:08;15.70;99.90
36416;DHT22;22447;44.530;18.620;2023-08-08T06:08:34;15.70;99.90
36416;DHT22;22447;44.530;18.620;2023-08-08T06:11:00;16.00;99.90
36416;DHT22;22447;44.530;18.620;2023-08-08T06:13:26;16.00;99.90
36416;DHT22;22447;44.530;18.620;2023-08-08T06:15:52;16.20;99.90
36416;DHT22;22447;44.530;18.620;2023-08-08T06:18:18;16.30;99.90
36416;DHT22;22447;44.530;18.620;2023-08-08T06:20:44;16.30;99.90
36416;DHT22;22447;44.530;18.620;2023-08-08T06:23:10;16.40;99.90
36416;DHT22;22447;44.530;18.620;2023-08-08T06:25:36;16.40;99.90
36416;DHT22;22447;44.530;18.620;2023-08-08T06:28:04;16.60;99.90
36416;DHT22;22447;44.530;18.620;2023-08-08T06:30:30;16.70;99.90
36416;DHT22;22447;44.530;18.620;2023-08-08T06:32:56;16.80;99.90
36416;DHT22;22447;44.530;18.620;2023-08-08T06:35:22;16.70;99.90
36416;DHT22;22447;44.530;18.620;2023-08-08T06:37:48;17.00;99.90
36416;DHT22;22447;44.530;18.620;2023-08-08T06:40:15;17.10;99.90
36416;DHT22;22447;44.530;18.620;2023-08-08T06:42:41;17.20;99.90
36416;DHT22;22447;44.530;18.620;2023-08-08T06:45:07;17.20;99.90
36416;DHT22;22447;44.530;18.620;2023-08-08T06:47:35;17.00;99.90
36416;DHT22;22447;44.530;18.620;2023-08-08T06:50:02;17.20;99.90
36416;DHT22;22447;44.530;18.620;2023-08-08T06:52:31;17.40;99.90
36416;DHT22;22447;44.530;18.620;2023-08-08T06:55:01;17.60;99.90
36416;DHT22;22447;44.530;18.620;2023-08-08T06:57:32;17.60;99.90
36416;DHT22;22447;44.530;18.620;2023-08-08T06:59:59;17.80;99.90
36416;DHT22;22447;44.530;18.620;2023-08-08T07:02:25;17.40;99.90
36416;DHT22;22447;44.530;18.620;2023-08-08T07:04:51;17.30;99.90
36416;DHT22;22447;44.530;18.620;2023-08-08T07:07:17;17.60;99.90
36416;DHT22;22447;44.530;18.620;2023-08-08T07:09:43;17.60;99.90
36416;DHT22;22447;44.530;18.620;2023-08-08T07:12:09;17.80;99.90
36416;DHT22;22447;44.530;18.620;2023-08-08T07:14:35;17.90;99.90
36416;DHT22;22447;44.530;18.620;2023-08-08T07:17:01;18.30;99.90
36416;DHT22;22447;44.530;18.620;2023-08-08T07:19:29;18.60;99.90
36416;DHT22;22447;44.530;18.620;2023-08-08T07:21:55;18.90;99.90
36416;DHT22;22447;44.530;18.620;2023-08-08T07:24:21;19.40;99.90
36416;DHT22;22447;44.530;18.620;2023-08-08T07:26:59;19.70;99.90
36416;DHT22;22447;44.530;18.620;2023-08-08T07:29:26;20.00;99.90
36416;DHT22;22447;44.530;18.620;2023-08-08T07:31:53;20.60;99.90
36416;DHT22;22447;44.530;18.620;2023-08-08T07:34:20;21.00;99.90
36416;DHT22;22447;44.530;18.620;2023-08-08T07:36:46;21.50;99.90
36416;DHT22;22447;44.530;18.620;2023-08-08T07:39:12;21.30;97.00
36416;DHT22;22447;44.530;18.620;2023-08-08T07:41:39;21.60;94.50
36416;DHT22;22447;44.530;18.620;2023-08-08T07:44:05;21.60;92.80
36416;DHT22;22447;44.530;18.620;2023-08-08T07:46:31;21.70;92.90
36416;DHT22;22447;44.530;18.620;2023-08-08T07:48:57;22.10;92.80
36416;DHT22;22447;44.530;18.620;2023-08-08T07:51:28;21.60;87.80
36416;DHT22;22447;44.530;18.620;2023-08-08T07:53:54;22.20;90.70
36416;DHT22;22447;44.530;18.620;2023-08-08T07:56:20;21.50;89.10
36416;DHT22;22447;44.530;18.620;2023-08-08T07:58:47;21.60;89.80
36416;DHT22;22447;44.530;18.620;2023-08-08T08:01:13;21.80;83.60
36416;DHT22;22447;44.530;18.620;2023-08-08T08:03:40;22.50;77.30
36416;DHT22;22447;44.530;18.620;2023-08-08T08:06:06;22.90;74.10
36416;DHT22;22447;44.530;18.620;2023-08-08T08:08:32;23.20;69.70
36416;DHT22;22447;44.530;18.620;2023-08-08T08:10:59;23.20;65.70
36416;DHT22;22447;44.530;18.620;2023-08-08T08:13:25;23.00;66.50
36416;DHT22;22447;44.530;18.620;2023-08-08T08:15:51;23.20;64.00
36416;DHT22;22447;44.530;18.620;2023-08-08T08:18:17;23.40;63.60
36416;DHT22;22447;44.530;18.620;2023-08-08T08:20:45;23.60;65.90
36416;DHT22;22447;44.530;18.620;2023-08-08T08:23:12;23.30;70.60
36416;DHT22;22447;44.530;18.620;2023-08-08T08:25:40;24.00;65.00
36416;DHT22;22447;44.530;18.620;2023-08-08T08:28:06;23.20;59.50
36416;DHT22;22447;44.530;18.620;2023-08-08T08:30:32;21.70;64.20
36416;DHT22;22447;44.530;18.620;2023-08-08T08:32:58;21.90;63.10
36416;DHT22;22447;44.530;18.620;2023-08-08T08:35:25;22.90;64.60
36416;DHT22;22447;44.530;18.620;2023-08-08T08:37:51;23.80;64.90
36416;DHT22;22447;44.530;18.620;2023-08-08T08:40:17;24.10;57.30
36416;DHT22;22447;44.530;18.620;2023-08-08T08:42:45;23.20;57.40
36416;DHT22;22447;44.530;18.620;2023-08-08T08:45:12;23.00;59.70
36416;DHT22;22447;44.530;18.620;2023-08-08T08:47:41;23.80;58.80
36416;DHT22;22447;44.530;18.620;2023-08-08T08:50:08;24.40;58.80
36416;DHT22;22447;44.530;18.620;2023-08-08T08:52:34;24.60;57.30
36416;DHT22;22447;44.530;18.620;2023-08-08T08:55:01;24.80;54.50
36416;DHT22;22447;44.530;18.620;2023-08-08T08:57:28;25.00;52.80
36416;DHT22;22447;44.530;18.620;2023-08-08T08:59:55;25.40;54.10
36416;DHT22;22447;44.530;18.620;2023-08-08T09:02:21;25.70;52.20
36416;DHT22;22447;44.530;18.620;2023-08-08T09:04:47;26.00;50.70
36416;DHT22;22447;44.530;18.620;2023-08-08T09:07:14;26.20;48.80
36416;DHT22;22447;44.530;18.620;2023-08-08T09:09:45;24.50;46.70
36416;DHT22;22447;44.530;18.620;2023-08-08T09:12:11;25.40;47.40
36416;DHT22;22447;44.530;18.620;2023-08-08T09:14:41;25.20;48.20
36416;DHT22;22447;44.530;18.620;2023-08-08T09:17:12;25.10;48.20
36416;DHT22;22447;44.530;18.620;2023-08-08T09:19:42;25.60;47.90
36416;DHT22;22447;44.530;18.620;2023-08-08T09:22:08;24.90;43.50
36416;DHT22;22447;44.530;18.620;2023-08-08T09:24:40;25.30;44.70
36416;DHT22;22447;44.530;18.620;2023-08-08T09:27:08;25.00;47.90
36416;DHT22;22447;44.530;18.620;2023-08-08T09:29:35;25.30;44.10
36416;DHT22;22447;44.530;18.620;2023-08-08T09:32:06;24.90;46.50
36416;DHT22;22447;44.530;18.620;2023-08-08T09:34:32;24.70;49.50
36416;DHT22;22447;44.530;18.620;2023-08-08T09:36:58;24.90;45.20
36416;DHT22;22447;44.530;18.620;2023-08-08T09:39:27;24.70;49.40
36416;DHT22;22447;44.530;18.620;2023-08-08T09:41:56;24.80;50.30
36416;DHT22;22447;44.530;18.620;2023-08-08T09:44:26;24.90;49.40
36416;DHT22;22447;44.530;18.620;2023-08-08T09:46:54;24.50;50.20
36416;DHT22;22447;44.530;18.620;2023-08-08T09:49:21;25.00;48.70
36416;DHT22;22447;44.530;18.620;2023-08-08T09:51:49;25.10;46.90
36416;DHT22;22447;44.530;18.620;2023-08-08T09:54:16;25.10;47.00
36416;DHT22;22447;44.530;18.620;2023-08-08T09:56:43;25.60;44.70
36416;DHT22;22447;44.530;18.620;2023-08-08T09:59:09;26.00;43.20
36416;DHT22;22447;44.530;18.620;2023-08-08T10:01:37;26.10;45.30
36416;DHT22;22447;44.530;18.620;2023-08-08T10:04:06;26.10;43.30
36416;DHT22;22447;44.530;18.620;2023-08-08T10:06:32;26.00;44.30
36416;DHT22;22447;44.530;18.620;2023-08-08T10:09:00;25.30;41.40
36416;DHT22;22447;44.530;18.620;2023-08-08T10:11:27;24.70;38.80
36416;DHT22;22447;44.530;18.620;2023-08-08T10:13:58;24.50;43.90
36416;DHT22;22447;44.530;18.620;2023-08-08T10:16:27;24.90;46.70
36416;DHT22;22447;44.530;18.620;2023-08-08T10:18:59;25.30;43.60
36416;DHT22;22447;44.530;18.620;2023-08-08T10:21:25;26.00;44.80
36416;DHT22;22447;44.530;18.620;2023-08-08T10:24:02;26.30;42.30
36416;DHT22;22447;44.530;18.620;2023-08-08T10:26:29;26.50;42.20
36416;DHT22;22447;44.530;18.620;2023-08-08T10:28:57;27.30;44.10
36416;DHT22;22447;44.530;18.620;2023-08-08T10:31:23;27.90;44.30
36416;DHT22;22447;44.530;18.620;2023-08-08T10:33:49;28.40;41.00
36416;DHT22;22447;44.530;18.620;2023-08-08T10:36:15;28.80;39.40
36416;DHT22;22447;44.530;18.620;2023-08-08T10:38:44;28.60;36.60
36416;DHT22;22447;44.530;18.620;2023-08-08T10:41:15;28.60;37.20
36416;DHT22;22447;44.530;18.620;2023-08-08T10:43:52;28.60;37.50
36416;DHT22;22447;44.530;18.620;2023-08-08T10:46:26;28.60;37.80
36416;DHT22;22447;44.530;18.620;2023-08-08T10:48:54;27.10;34.80
36416;DHT22;22447;44.530;18.620;2023-08-08T10:51:21;26.50;36.70
36416;DHT22;22447;44.530;18.620;2023-08-08T10:53:51;26.30;38.50
36416;DHT22;22447;44.530;18.620;2023-08-08T10:56:19;26.10;39.20
36416;DHT22;22447;44.530;18.620;2023-08-08T10:58:49;25.30;41.30
36416;DHT22;22447;44.530;18.620;2023-08-08T11:01:15;24.80;44.60
36416;DHT22;22447;44.530;18.620;2023-08-08T11:03:43;24.80;43.60
36416;DHT22;22447;44.530;18.620;2023-08-08T11:06:10;24.20;44.00
36416;DHT22;22447;44.530;18.620;2023-08-08T11:08:37;23.90;41.80
36416;DHT22;22447;44.530;18.620;2023-08-08T11:13:41;25.00;43.30
36416;DHT22;22447;44.530;18.620;2023-08-08T11:16:07;25.40;40.50
36416;DHT22;22447;44.530;18.620;2023-08-08T11:18:33;25.30;39.30
36416;DHT22;22447;44.530;18.620;2023-08-08T11:20:59;26.30;38.00
36416;DHT22;22447;44.530;18.620;2023-08-08T11:23:25;27.10;39.20
36416;DHT22;22447;44.530;18.620;2023-08-08T11:25:51;26.20;35.10
36416;DHT22;22447;44.530;18.620;2023-08-08T11:28:17;26.30;41.40
36416;DHT22;22447;44.530;18.620;2023-08-08T11:30:45;27.10;36.90
36416;DHT22;22447;44.530;18.620;2023-08-08T11:33:14;26.90;35.80
36416;DHT22;22447;44.530;18.620;2023-08-08T11:35:45;25.90;36.20
36416;DHT22;22447;44.530;18.620;2023-08-08T11:38:13;25.70;39.20
36416;DHT22;22447;44.530;18.620;2023-08-08T11:40:40;24.30;40.90
36416;DHT22;22447;44.530;18.620;2023-08-08T11:43:06;24.30;42.70
36416;DHT22;22447;44.530;18.620;2023-08-08T11:45:34;24.40;42.90
36416;DHT22;22447;44.530;18.620;2023-08-08T11:48:00;25.10;41.90
36416;DHT22;22447;44.530;18.620;2023-08-08T11:50:27;25.30;39.50
36416;DHT22;22447;44.530;18.620;2023-08-08T11:52:54;25.40;39.50
36416;DHT22;22447;44.530;18.620;2023-08-08T11:55:27;26.00;38.20
36416;DHT22;22447;44.530;18.620;2023-08-08T11:57:54;26.60;37.60
36416;DHT22;22447;44.530;18.620;2023-08-08T12:00:27;26.00;35.10
36416;DHT22;22447;44.530;18.620;2023-08-08T12:02:55;26.50;37.40
36416;DHT22;22447;44.530;18.620;2023-08-08T12:05:22;26.60;37.50
36416;DHT22;22447;44.530;18.620;2023-08-08T12:07:49;26.20;37.30
36416;DHT22;22447;44.530;18.620;2023-08-08T12:10:23;26.30;42.70
36416;DHT22;22447;44.530;18.620;2023-08-08T12:12:54;26.80;38.70
36416;DHT22;22447;44.530;18.620;2023-08-08T12:15:21;26.00;38.70
36416;DHT22;22447;44.530;18.620;2023-08-08T12:17:53;26.00;36.90
36416;DHT22;22447;44.530;18.620;2023-08-08T12:20:22;25.90;37.80
36416;DHT22;22447;44.530;18.620;2023-08-08T12:22:48;26.00;36.90
36416;DHT22;22447;44.530;18.620;2023-08-08T12:25:13;26.80;36.90
36416;DHT22;22447;44.530;18.620;2023-08-08T12:27:39;27.30;39.60
36416;DHT22;22447;44.530;18.620;2023-08-08T12:30:07;28.00;40.20
36416;DHT22;22447;44.530;18.620;2023-08-08T12:32:33;28.70;38.60
36416;DHT22;22447;44.530;18.620;2023-08-08T12:34:59;28.50;36.50
36416;DHT22;22447;44.530;18.620;2023-08-08T12:37:25;27.40;33.50
36416;DHT22;22447;44.530;18.620;2023-08-08T12:39:58;26.90;37.70
36416;DHT22;22447;44.530;18.620;2023-08-08T12:42:29;26.90;37.70
36416;DHT22;22447;44.530;18.620;2023-08-08T12:44:55;25.50;38.30
36416;DHT22;22447;44.530;18.620;2023-08-08T12:47:21;24.90;40.80
36416;DHT22;22447;44.530;18.620;2023-08-08T12:49:47;24.40;41.20
36416;DHT22;22447;44.530;18.620;2023-08-08T12:52:14;24.60;40.50
36416;DHT22;22447;44.530;18.620;2023-08-08T12:54:40;24.30;42.30
36416;DHT22;22447;44.530;18.620;2023-08-08T12:57:06;24.60;40.90
36416;DHT22;22447;44.530;18.620;2023-08-08T12:59:32;23.90;42.70
36416;DHT22;22447;44.530;18.620;2023-08-08T13:01:58;24.10;44.30
36416;DHT22;22447;44.530;18.620;2023-08-08T13:04:24;24.00;42.60
36416;DHT22;22447;44.530;18.620;2023-08-08T13:06:50;24.40;42.40
36416;DHT22;22447;44.530;18.620;2023-08-08T13:09:17;24.90;41.80
36416;DHT22;22447;44.530;18.620;2023-08-08T13:11:46;24.80;45.30
36416;DHT22;22447;44.530;18.620;2023-08-08T13:14:15;24.50;41.30
36416;DHT22;22447;44.530;18.620;2023-08-08T13:16:42;24.60;40.70
36416;DHT22;22447;44.530;18.620;2023-08-08T13:19:08;24.90;42.50
36416;DHT22;22447;44.530;18.620;2023-08-08T13:21:34;25.50;41.80
36416;DHT22;22447;44.530;18.620;2023-08-08T13:24:00;25.40;39.80
36416;DHT22;22447;44.530;18.620;2023-08-08T13:26:26;25.60;41.80
36416;DHT22;22447;44.530;18.620;2023-08-08T13:28:52;25.80;41.80
36416;DHT22;22447;44.530;18.620;2023-08-08T13:31:18;25.60;37.80
36416;DHT22;22447;44.530;18.620;2023-08-08T13:33:44;25.60;38.20
36416;DHT22;22447;44.530;18.620;2023-08-08T13:36:10;25.70;38.90
36416;DHT22;22447;44.530;18.620;2023-08-08T13:38:36;25.60;40.30
36416;DHT22;22447;44.530;18.620;2023-08-08T13:41:02;24.90;38.90
36416;DHT22;22447;44.530;18.620;2023-08-08T13:43:29;25.60;41.20
36416;DHT22;22447;44.530;18.620;2023-08-08T13:45:56;26.30;38.20
36416;DHT22;22447;44.530;18.620;2023-08-08T13:48:22;26.30;37.10
36416;DHT22;22447;44.530;18.620;2023-08-08T13:50:49;26.30;37.40
36416;DHT22;22447;44.530;18.620;2023-08-08T13:53:15;26.70;36.20
36416;DHT22;22447;44.530;18.620;2023-08-08T13:55:41;26.80;35.80
36416;DHT22;22447;44.530;18.620;2023-08-08T13:58:10;26.60;34.90
36416;DHT22;22447;44.530;18.620;2023-08-08T14:00:36;26.00;35.20
36416;DHT22;22447;44.530;18.620;2023-08-08T14:03:02;26.20;34.10
36416;DHT22;22447;44.530;18.620;2023-08-08T14:05:28;26.40;34.90
36416;DHT22;22447;44.530;18.620;2023-08-08T14:07:56;26.30;36.90
36416;DHT22;22447;44.530;18.620;2023-08-08T14:10:22;26.10;36.00
36416;DHT22;22447;44.530;18.620;2023-08-08T14:12:48;26.00;37.10
36416;DHT22;22447;44.530;18.620;2023-08-08T14:15:14;26.10;37.00
36416;DHT22;22447;44.530;18.620;2023-08-08T14:17:40;26.10;37.40
36416;DHT22;22447;44.530;18.620;2023-08-08T14:20:06;25.80;36.20
36416;DHT22;22447;44.530;18.620;2023-08-08T14:22:34;24.70;39.10
36416;DHT22;22447;44.530;18.620;2023-08-08T14:25:00;24.30;39.30
36416;DHT22;22447;44.530;18.620;2023-08-08T14:27:26;24.90;39.30
36416;DHT22;22447;44.530;18.620;2023-08-08T14:29:52;25.40;38.70
36416;DHT22;22447;44.530;18.620;2023-08-08T14:32:19;25.20;39.90
36416;DHT22;22447;44.530;18.620;2023-08-08T14:34:45;25.50;41.40
36416;DHT22;22447;44.530;18.620;2023-08-08T14:37:11;25.30;39.60
36416;DHT22;22447;44.530;18.620;2023-08-08T14:39:37;25.00;39.30
36416;DHT22;22447;44.530;18.620;2023-08-08T14:42:04;24.60;40.40
36416;DHT22;22447;44.530;18.620;2023-08-08T14:44:30;24.90;42.70
36416;DHT22;22447;44.530;18.620;2023-08-08T14:46:56;24.80;43.10
36416;DHT22;22447;44.530;18.620;2023-08-08T14:49:22;24.70;40.30
36416;DHT22;22447;44.530;18.620;2023-08-08T14:51:48;24.80;40.40
36416;DHT22;22447;44.530;18.620;2023-08-08T14:54:14;24.50;40.70
36416;DHT22;22447;44.530;18.620;2023-08-08T14:56:40;24.30;45.40
36416;DHT22;22447;44.530;18.620;2023-08-08T14:59:06;23.80;47.40
36416;DHT22;22447;44.530;18.620;2023-08-08T15:01:32;23.80;52.80
36416;DHT22;22447;44.530;18.620;2023-08-08T15:03:58;23.40;54.60
36416;DHT22;22447;44.530;18.620;2023-08-08T15:06:24;23.00;54.60
36416;DHT22;22447;44.530;18.620;2023-08-08T15:08:50;23.10;52.90
36416;DHT22;22447;44.530;18.620;2023-08-08T15:11:16;23.40;52.20
36416;DHT22;22447;44.530;18.620;2023-08-08T15:13:43;23.60;52.30
36416;DHT22;22447;44.530;18.620;2023-08-08T15:16:09;23.70;45.00
36416;DHT22;22447;44.530;18.620;2023-08-08T15:18:35;23.80;48.00
36416;DHT22;22447;44.530;18.620;2023-08-08T15:21:01;23.70;44.30
36416;DHT22;22447;44.530;18.620;2023-08-08T15:23:28;23.70;46.70
36416;DHT22;22447;44.530;18.620;2023-08-08T15:25:54;23.80;45.70
36416;DHT22;22447;44.530;18.620;2023-08-08T15:28:21;23.60;43.80
36416;DHT22;22447;44.530;18.620;2023-08-08T15:30:47;23.60;44.60